createdAt,value
2023-03-30T00:01:32.341Z,100509.00
2023-03-30T00:04:02.879Z,100506.00
2023-03-30T00:06:34.330Z,100514.00
2023-03-30T00:09:06.330Z,100510.00
2023-03-30T00:11:38.033Z,100508.00
2023-03-30T00:14:08.018Z,100502.00
2023-03-30T00:16:40.671Z,100511.00
2023-03-30T00:19:10.790Z,100505.00
2023-03-30T00:21:40.741Z,100507.00
2023-03-30T00:24:10.909Z,100503.00
2023-03-30T00:26:41.022Z,100493.00
2023-03-30T00:29:11.100Z,100496.00
2023-03-30T00:31:43.728Z,100492.00
2023-03-30T00:34:13.715Z,100490.00
2023-03-30T00:36:43.680Z,100487.00
2023-03-30T00:39:13.626Z,100481.00
2023-03-30T00:41:43.742Z,100479.00
2023-03-30T00:44:58.716Z,100475.00
2023-03-30T00:47:32.624Z,100467.00
2023-03-30T00:50:02.922Z,100470.00
2023-03-30T00:52:33.609Z,100463.00
2023-03-30T00:55:03.611Z,100467.00
2023-03-30T00:57:34.766Z,100461.00
2023-03-30T01:00:07.228Z,100451.00
2023-03-30T01:02:46.378Z,100450.00
2023-03-30T01:05:16.441Z,100447.00
2023-03-30T01:07:50.048Z,100434.00
2023-03-30T01:10:21.877Z,100436.00
2023-03-30T01:12:52.066Z,100422.00
2023-03-30T01:15:22.476Z,100425.00
2023-03-30T01:18:14.009Z,100421.00
2023-03-30T01:21:24.215Z,100419.00
2023-03-30T01:24:53.718Z,100400.00
2023-03-30T01:28:04.664Z,100398.00
2023-03-30T01:30:58.489Z,100394.00
2023-03-30T01:34:21.472Z,100384.00
2023-03-30T01:37:39.957Z,100381.00
2023-03-30T01:40:16.768Z,100380.00
2023-03-30T01:42:58.974Z,100374.00
2023-03-30T01:45:41.786Z,100361.00
2023-03-30T01:48:18.211Z,100366.00
2023-03-30T01:50:54.025Z,100354.00
2023-03-30T01:53:33.137Z,100359.00
2023-03-30T01:56:12.173Z,100354.00
2023-03-30T01:58:47.501Z,100351.00
2023-03-30T02:01:20.872Z,100346.00
2023-03-30T02:03:56.160Z,100332.00
2023-03-30T02:06:38.801Z,100321.00
2023-03-30T02:09:13.237Z,100324.00
2023-03-30T02:11:51.259Z,100336.00
2023-03-30T02:14:23.354Z,100341.00
2023-03-30T02:16:58.770Z,100341.00
2023-03-30T02:19:29.281Z,100333.00
2023-03-30T02:22:00.340Z,100341.00
2023-03-30T02:24:33.486Z,100344.00
2023-03-30T02:27:06.952Z,100331.00
2023-03-30T02:29:38.101Z,100320.00
2023-03-30T02:32:08.883Z,100312.00
2023-03-30T02:34:58.724Z,100316.00
2023-03-30T02:37:48.837Z,100310.00
2023-03-30T02:40:36.428Z,100314.00
2023-03-30T02:43:26.362Z,100300.00
2023-03-30T02:46:10.272Z,100306.00
2023-03-30T02:48:47.825Z,100301.00
2023-03-30T02:51:36.114Z,100301.00
2023-03-30T02:54:17.972Z,100295.00
2023-03-30T02:56:54.920Z,100299.00
2023-03-30T02:59:33.533Z,100290.00
2023-03-30T03:02:09.797Z,100285.00
2023-03-30T03:04:43.670Z,100276.00
2023-03-30T03:07:15.798Z,100273.00
2023-03-30T03:09:46.121Z,100276.00
2023-03-30T03:12:16.274Z,100261.00
2023-03-30T03:14:48.804Z,100257.00
2023-03-30T03:17:22.524Z,100255.00
2023-03-30T03:19:52.916Z,100241.00
2023-03-30T03:22:22.886Z,100239.00
2023-03-30T03:24:53.144Z,100245.00
2023-03-30T03:27:23.124Z,100240.00
2023-03-30T03:29:55.651Z,100228.00
2023-03-30T03:32:25.677Z,100230.00
2023-03-30T03:34:55.639Z,100239.00
2023-03-30T03:37:25.620Z,100232.00
2023-03-30T03:39:55.665Z,100227.00
2023-03-30T03:42:25.750Z,100222.00
2023-03-30T03:44:58.270Z,100224.00
2023-03-30T03:47:28.444Z,100213.00
2023-03-30T03:49:58.941Z,100213.00
2023-03-30T03:52:28.882Z,100220.00
2023-03-30T03:54:58.852Z,100218.00
2023-03-30T03:57:28.806Z,100213.00
2023-03-30T04:00:01.735Z,100205.00
2023-03-30T04:02:31.779Z,100197.00
2023-03-30T04:05:01.865Z,100196.00
2023-03-30T04:07:31.824Z,100195.00
2023-03-30T04:10:01.767Z,100178.00
2023-03-30T04:12:32.769Z,100184.00
2023-03-30T04:15:05.360Z,100172.00
2023-03-30T04:17:37.374Z,100172.00
2023-03-30T04:20:12.274Z,100164.00
2023-03-30T04:22:46.239Z,100163.00
2023-03-30T04:25:18.448Z,100151.00
2023-03-30T04:27:50.557Z,100143.00
2023-03-30T04:30:24.983Z,100146.00
2023-03-30T04:33:03.257Z,100147.00
2023-03-30T04:35:35.225Z,100149.00
2023-03-30T04:38:06.296Z,100143.00
2023-03-30T04:40:36.688Z,100147.00
2023-03-30T04:43:07.343Z,100151.00
2023-03-30T04:45:40.009Z,100147.00
2023-03-30T04:48:10.046Z,100141.00
2023-03-30T04:50:40.029Z,100143.00
2023-03-30T04:53:12.641Z,100142.00
2023-03-30T04:55:42.563Z,100135.00
2023-03-30T04:58:14.544Z,100141.00
2023-03-30T05:00:47.560Z,100133.00
2023-03-30T05:03:18.973Z,100139.00
2023-03-30T05:05:50.062Z,100139.00
2023-03-30T05:08:20.012Z,100134.00
2023-03-30T05:10:49.966Z,100139.00
2023-03-30T05:13:19.959Z,100146.00
2023-03-30T05:15:59.139Z,100128.00
2023-03-30T05:18:29.235Z,100129.00
2023-03-30T05:21:01.272Z,100126.00
2023-03-30T05:23:31.526Z,100109.00
2023-03-30T05:26:01.533Z,100109.00
2023-03-30T05:28:32.569Z,100103.00
2023-03-30T05:31:05.363Z,100104.00
2023-03-30T05:33:35.775Z,100100.00
2023-03-30T05:36:06.208Z,100081.00
2023-03-30T05:38:36.247Z,100064.00
2023-03-30T05:41:06.854Z,100058.00
2023-03-30T05:43:37.097Z,100056.00
2023-03-30T05:46:10.256Z,100058.00
2023-03-30T05:48:40.263Z,100056.00
2023-03-30T05:51:10.928Z,100058.00
2023-03-30T05:53:40.911Z,100074.00
2023-03-30T05:56:12.597Z,100073.00
2023-03-30T05:58:42.627Z,100063.00
2023-03-30T06:01:15.167Z,100063.00
2023-03-30T06:03:45.428Z,100049.00
2023-03-30T06:06:15.568Z,100064.00
2023-03-30T06:08:45.526Z,100061.00
2023-03-30T06:11:15.577Z,100061.00
2023-03-30T06:13:45.613Z,100064.00
2023-03-30T06:16:18.848Z,100060.00
2023-03-30T06:18:48.922Z,100042.00
2023-03-30T06:21:18.884Z,100039.00
2023-03-30T06:23:49.269Z,100026.00
2023-03-30T06:26:20.407Z,100021.00
2023-03-30T06:28:50.349Z,100024.00
2023-03-30T06:31:22.925Z,100016.00
2023-03-30T06:33:53.060Z,100025.00
2023-03-30T06:36:23.115Z,100019.00
2023-03-30T06:39:13.812Z,100025.00
2023-03-30T06:41:43.907Z,100024.00
2023-03-30T06:44:15.014Z,100018.00
2023-03-30T06:46:48.033Z,100013.00
2023-03-30T06:49:18.659Z,100018.00
2023-03-30T06:51:49.042Z,100023.00
2023-03-30T06:54:20.583Z,100022.00
2023-03-30T06:56:50.965Z,100027.00
2023-03-30T06:59:21.351Z,100022.00
2023-03-30T07:01:53.980Z,100028.00
2023-03-30T07:04:24.142Z,100017.00
2023-03-30T07:06:57.868Z,100012.00
2023-03-30T07:09:28.295Z,100011.00
2023-03-30T07:11:58.311Z,100001.00
2023-03-30T07:14:28.365Z,100000.00
2023-03-30T07:17:00.900Z,100001.00
2023-03-30T07:19:31.184Z,99995.00
2023-03-30T07:22:01.325Z,100000.00
2023-03-30T07:24:32.173Z,99999.00
2023-03-30T07:27:02.366Z,100000.00
2023-03-30T07:29:32.630Z,99996.00
2023-03-30T07:32:05.470Z,100001.00
2023-03-30T07:34:35.472Z,99989.00
2023-03-30T07:37:07.606Z,99982.00
2023-03-30T07:39:37.785Z,99977.00
2023-03-30T07:42:09.168Z,99975.00
2023-03-30T07:44:39.141Z,99976.00
2023-03-30T07:47:12.108Z,99972.00
2023-03-30T07:49:42.296Z,99967.00
2023-03-30T07:52:12.796Z,99972.00
2023-03-30T07:54:44.233Z,99960.00
2023-03-30T07:57:14.510Z,99965.00
2023-03-30T07:59:44.584Z,99959.00
2023-03-30T08:02:18.577Z,99953.00
2023-03-30T08:04:48.818Z,99955.00
2023-03-30T08:07:19.431Z,99942.00
2023-03-30T08:09:49.762Z,99952.00
2023-03-30T08:12:19.923Z,99946.00
2023-03-30T08:14:49.860Z,99934.00
2023-03-30T08:17:22.878Z,99951.00
2023-03-30T08:19:52.920Z,99942.00
2023-03-30T08:22:22.886Z,99944.00
2023-03-30T08:24:52.816Z,99936.00
2023-03-30T08:27:22.867Z,99934.00
2023-03-30T08:29:54.449Z,99937.00
2023-03-30T08:32:27.077Z,99940.00
2023-03-30T08:34:57.061Z,99929.00
2023-03-30T08:37:27.038Z,99933.00
2023-03-30T08:39:57.365Z,99923.00
2023-03-30T08:42:47.619Z,99923.00
2023-03-30T08:45:18.818Z,99916.00
2023-03-30T08:47:55.255Z,99922.00
2023-03-30T08:50:35.605Z,99917.00
2023-03-30T08:53:07.576Z,99919.00
2023-03-30T08:55:43.280Z,99914.00
2023-03-30T08:58:20.429Z,99907.00
2023-03-30T09:00:57.353Z,99906.00
2023-03-30T09:03:35.207Z,99925.00
2023-03-30T09:06:13.709Z,99921.00
2023-03-30T09:08:44.114Z,99919.00
2023-03-30T09:11:22.194Z,99908.00
2023-03-30T09:13:53.784Z,99901.00
2023-03-30T09:16:31.783Z,99896.00
2023-03-30T09:19:06.286Z,99901.00
2023-03-30T09:21:36.250Z,99891.00
2023-03-30T09:24:20.322Z,99892.00
2023-03-30T09:26:57.897Z,99896.00
2023-03-30T09:29:31.696Z,99899.00
2023-03-30T09:32:08.580Z,99900.00
2023-03-30T09:34:48.908Z,99904.00
2023-03-30T09:37:21.937Z,99889.00
2023-03-30T09:39:52.627Z,99893.00
2023-03-30T09:42:34.116Z,99883.00
2023-03-30T09:45:09.917Z,99887.00
2023-03-30T09:47:42.628Z,99900.00
2023-03-30T09:50:22.100Z,99900.00
2023-03-30T09:53:00.165Z,99902.00
2023-03-30T09:55:34.349Z,99900.00
2023-03-30T09:58:17.671Z,99912.00
2023-03-30T10:00:50.379Z,99904.00
2023-03-30T10:03:24.560Z,99906.00
2023-03-30T10:06:08.970Z,99898.00
2023-03-30T10:08:46.279Z,99889.00
2023-03-30T10:11:16.430Z,99895.00
2023-03-30T10:13:46.980Z,99895.00
2023-03-30T10:16:29.077Z,99897.00
2023-03-30T10:19:03.497Z,99908.00
2023-03-30T10:21:47.203Z,99900.00
2023-03-30T10:24:29.676Z,99911.00
2023-03-30T10:27:03.187Z,99916.00
2023-03-30T10:29:33.999Z,99913.00
2023-03-30T10:32:12.654Z,99926.00
2023-03-30T10:34:44.419Z,99931.00
2023-03-30T10:37:21.450Z,99928.00
2023-03-30T10:39:52.707Z,99916.00
2023-03-30T10:42:26.920Z,99920.00
2023-03-30T10:44:59.657Z,99913.00
2023-03-30T10:47:51.698Z,99903.00
2023-03-30T10:50:30.159Z,99911.00
2023-03-30T10:53:20.070Z,99904.00
2023-03-30T10:55:55.748Z,99907.00
2023-03-30T10:58:44.821Z,99904.00
2023-03-30T11:01:21.034Z,99906.00
2023-03-30T11:03:59.841Z,99905.00
2023-03-30T11:06:38.630Z,99901.00
2023-03-30T11:09:17.842Z,99901.00
2023-03-30T11:11:52.880Z,99889.00
2023-03-30T11:14:29.269Z,99879.00
2023-03-30T11:17:04.743Z,99892.00
2023-03-30T11:19:39.855Z,99888.00
2023-03-30T11:22:18.077Z,99891.00
2023-03-30T11:24:52.961Z,99891.00
2023-03-30T11:27:30.969Z,99886.00
2023-03-30T11:30:07.048Z,99889.00
2023-03-30T11:32:45.133Z,99891.00
2023-03-30T11:35:21.089Z,99883.00
2023-03-30T11:37:58.420Z,99884.00
2023-03-30T11:40:36.128Z,99882.00
2023-03-30T11:43:06.237Z,99885.00
2023-03-30T11:45:55.817Z,99887.00
2023-03-30T11:48:51.174Z,99888.00
2023-03-30T11:51:35.759Z,99880.00
2023-03-30T11:54:46.948Z,99874.00
2023-03-30T11:57:36.317Z,99868.00
2023-03-30T12:00:28.475Z,99867.00
2023-03-30T12:03:13.206Z,99854.00
2023-03-30T12:05:48.852Z,99839.00
2023-03-30T12:08:47.080Z,99836.00
2023-03-30T12:11:24.571Z,99836.00
2023-03-30T12:13:57.816Z,99825.00
2023-03-30T12:16:34.643Z,99823.00
2023-03-30T12:19:14.712Z,99819.00
2023-03-30T12:21:54.713Z,99810.00
2023-03-30T12:24:32.526Z,99802.00
2023-03-30T12:27:06.805Z,99794.00
2023-03-30T12:32:28.964Z,99776.00
2023-03-30T12:35:01.243Z,99777.00
2023-03-30T12:37:36.090Z,99773.00
2023-03-30T12:40:10.890Z,99768.00
2023-03-30T12:42:47.107Z,99773.00
2023-03-30T12:45:33.399Z,99758.00
2023-03-30T12:48:20.893Z,99765.00
2023-03-30T12:51:07.572Z,99750.00
2023-03-30T12:54:14.559Z,99737.00
2023-03-30T12:56:54.298Z,99733.00
2023-03-30T12:59:51.675Z,99733.00
2023-03-30T13:02:42.278Z,99724.00
2023-03-30T13:05:22.301Z,99725.00
2023-03-30T13:07:53.873Z,99721.00
2023-03-30T13:10:45.005Z,99704.00
2023-03-30T13:13:48.586Z,99702.00
2023-03-30T13:16:53.726Z,99689.00
2023-03-30T13:19:30.481Z,99690.00
2023-03-30T13:22:09.299Z,99673.00
2023-03-30T13:24:46.604Z,99677.00
2023-03-30T13:27:33.865Z,99677.00
2023-03-30T13:30:07.863Z,99687.00
2023-03-30T13:32:51.586Z,99687.00
2023-03-30T13:35:48.970Z,99680.00
2023-03-30T13:38:34.963Z,99678.00
2023-03-30T13:41:18.786Z,99673.00
2023-03-30T13:44:12.805Z,99676.00
2023-03-30T13:46:52.647Z,99669.00
2023-03-30T13:49:38.675Z,99670.00
2023-03-30T13:52:16.254Z,99668.00
2023-03-30T13:54:47.105Z,99674.00
2023-03-30T13:57:23.633Z,99679.00
2023-03-30T13:59:57.618Z,99682.00
2023-03-30T14:02:31.920Z,99674.00
2023-03-30T14:05:21.854Z,99679.00
2023-03-30T14:07:59.656Z,99705.00
2023-03-30T14:10:30.870Z,99751.00
2023-03-30T14:13:01.060Z,99832.00
2023-03-30T14:15:38.976Z,99845.00
2023-03-30T14:18:09.124Z,99827.00
2023-03-30T14:20:49.940Z,99838.00
2023-03-30T14:23:31.571Z,99831.00
2023-03-30T14:26:04.069Z,99824.00
2023-03-30T14:28:41.627Z,99819.00
2023-03-30T14:31:18.853Z,99821.00
2023-03-30T14:33:49.551Z,99811.00
2023-03-30T14:36:22.171Z,99810.00
2023-03-30T14:38:57.822Z,99800.00
2023-03-30T14:41:31.685Z,99818.00
2023-03-30T14:44:05.326Z,99806.00
2023-03-30T14:46:42.674Z,99817.00
2023-03-30T14:49:21.265Z,99805.00
2023-03-30T14:51:53.918Z,99785.00
2023-03-30T14:54:28.590Z,99792.00
2023-03-30T14:57:00.425Z,99793.00
2023-03-30T14:59:31.851Z,99794.00
2023-03-30T15:02:03.768Z,99782.00
2023-03-30T15:04:38.804Z,99780.00
2023-03-30T15:07:08.843Z,99792.00
2023-03-30T15:09:42.260Z,99793.00
2023-03-30T15:12:23.605Z,99793.00
2023-03-30T15:14:56.776Z,99803.00
2023-03-30T15:17:29.347Z,99799.00
2023-03-30T15:20:02.012Z,99796.00
2023-03-30T15:22:35.624Z,99804.00
2023-03-30T15:25:12.231Z,99797.00
2023-03-30T15:27:45.475Z,99800.00
2023-03-30T15:30:30.182Z,99798.00
2023-03-30T15:33:00.825Z,99800.00
2023-03-30T15:35:34.010Z,99804.00
2023-03-30T15:38:06.835Z,99808.00
2023-03-30T15:40:42.567Z,99806.00
2023-03-30T15:43:17.875Z,99809.00
2023-03-30T15:45:52.197Z,99821.00
2023-03-30T15:48:26.920Z,99827.00
2023-03-30T15:51:04.083Z,99827.00
2023-03-30T15:53:42.519Z,99830.00
2023-03-30T15:56:25.018Z,99841.00
2023-03-30T15:58:55.093Z,99834.00
2023-03-30T16:01:25.534Z,99842.00
2023-03-30T16:03:59.083Z,99836.00
2023-03-30T16:06:29.029Z,99831.00
2023-03-30T16:08:58.965Z,99830.00
2023-03-30T16:11:31.565Z,99828.00
2023-03-30T16:14:02.682Z,99826.00
2023-03-30T16:16:32.735Z,99830.00
2023-03-30T16:19:03.096Z,99837.00
2023-03-30T16:21:33.046Z,99840.00
2023-03-30T16:24:03.100Z,99835.00
2023-03-30T16:26:36.120Z,99839.00
2023-03-30T16:29:06.232Z,99838.00
2023-03-30T16:31:37.555Z,99835.00
2023-03-30T16:34:07.825Z,99835.00
2023-03-30T16:36:38.214Z,99834.00
2023-03-30T16:39:09.855Z,99834.00
2023-03-30T16:41:43.205Z,99829.00
2023-03-30T16:44:13.413Z,99838.00
2023-03-30T16:46:43.516Z,99843.00
2023-03-30T16:49:17.004Z,99833.00
2023-03-30T16:51:47.884Z,99843.00
2023-03-30T16:54:30.328Z,99839.00
2023-03-30T16:57:05.763Z,99831.00
2023-03-30T16:59:36.552Z,99839.00
2023-03-30T17:02:06.502Z,99853.00
2023-03-30T17:04:36.524Z,99842.00
2023-03-30T17:07:06.644Z,99844.00
2023-03-30T17:09:36.585Z,99844.00
2023-03-30T17:12:09.377Z,99846.00
2023-03-30T17:14:42.591Z,99854.00
2023-03-30T17:17:13.047Z,99854.00
2023-03-30T17:19:42.975Z,99854.00
2023-03-30T17:22:12.952Z,99860.00
2023-03-30T17:24:43.355Z,99854.00
2023-03-30T17:27:16.590Z,99864.00
2023-03-30T17:29:46.527Z,99866.00
2023-03-30T17:32:16.781Z,99869.00
2023-03-30T17:34:46.722Z,99861.00
2023-03-30T17:37:16.672Z,99882.00
2023-03-30T17:39:46.671Z,99880.00
2023-03-30T17:42:19.185Z,99879.00
2023-03-30T17:44:49.127Z,99878.00
2023-03-30T17:47:19.069Z,99888.00
2023-03-30T17:49:48.999Z,99889.00
2023-03-30T17:52:18.976Z,99900.00
2023-03-30T17:54:48.897Z,99902.00
2023-03-30T17:57:21.463Z,99899.00
2023-03-30T17:59:51.434Z,99897.00
2023-03-30T18:02:21.426Z,99905.00
2023-03-30T18:04:51.357Z,99908.00
2023-03-30T18:07:21.294Z,99905.00
2023-03-30T18:09:51.854Z,99905.00
2023-03-30T18:12:24.373Z,99903.00
2023-03-30T18:14:54.318Z,99905.00
2023-03-30T18:17:24.371Z,99913.00
2023-03-30T18:19:54.359Z,99906.00
2023-03-30T18:22:24.300Z,99907.00
2023-03-30T18:24:54.273Z,99911.00
2023-03-30T18:27:26.801Z,99914.00
2023-03-30T18:29:56.954Z,99917.00
2023-03-30T18:32:37.046Z,99920.00
2023-03-30T18:35:14.402Z,99916.00
2023-03-30T18:37:44.822Z,99913.00
2023-03-30T18:40:20.047Z,99915.00
2023-03-30T18:42:52.903Z,99918.00
2023-03-30T18:45:27.111Z,99912.00
2023-03-30T18:47:57.508Z,99916.00
2023-03-30T18:50:35.177Z,99917.00
2023-03-30T18:53:07.193Z,99923.00
2023-03-30T18:55:39.936Z,99923.00
2023-03-30T18:58:18.444Z,99922.00
2023-03-30T19:00:49.113Z,99942.00
2023-03-30T19:03:20.104Z,99952.00
2023-03-30T19:05:52.297Z,99950.00
2023-03-30T19:08:24.787Z,99952.00
2023-03-30T19:10:57.672Z,99944.00
2023-03-30T19:13:30.455Z,99943.00
2023-03-30T19:16:04.395Z,99941.00
2023-03-30T19:18:34.460Z,99944.00
2023-03-30T19:21:04.637Z,99947.00
2023-03-30T19:23:34.717Z,99946.00
2023-03-30T19:26:04.721Z,99941.00
2023-03-30T19:28:37.666Z,99943.00
2023-03-30T19:31:10.306Z,99964.00
2023-03-30T19:33:41.099Z,99975.00
2023-03-30T19:36:12.189Z,99983.00
2023-03-30T19:38:44.254Z,100008.00
2023-03-30T19:41:14.410Z,99990.00
2023-03-30T19:43:50.255Z,100006.00
2023-03-30T19:46:20.804Z,100016.00
2023-03-30T19:48:50.835Z,100016.00
2023-03-30T19:51:21.680Z,100026.00
2023-03-30T19:53:51.626Z,100020.00
2023-03-30T19:56:21.770Z,100026.00
2023-03-30T19:58:54.286Z,100021.00
2023-03-30T20:01:24.383Z,100022.00
2023-03-30T20:03:54.440Z,100021.00
2023-03-30T20:06:24.464Z,100022.00
2023-03-30T20:08:55.199Z,100012.00
2023-03-30T20:11:25.339Z,99988.00
2023-03-30T20:13:57.883Z,99989.00
2023-03-30T20:16:30.205Z,99971.00
2023-03-30T20:19:00.207Z,99968.00
2023-03-30T20:21:30.184Z,99976.00
2023-03-30T20:24:00.632Z,99993.00
2023-03-30T20:26:31.158Z,99997.00
2023-03-30T20:29:04.136Z,100001.00
2023-03-30T20:31:34.743Z,99986.00
2023-03-30T20:34:04.752Z,99996.00
2023-03-30T20:36:34.780Z,100001.00
2023-03-30T20:39:06.078Z,99996.00
2023-03-30T20:41:38.509Z,99996.00
2023-03-30T20:44:14.004Z,99989.00
2023-03-30T20:46:44.742Z,99985.00
2023-03-30T20:49:15.927Z,99986.00
2023-03-30T20:51:46.576Z,99992.00
2023-03-30T20:54:17.564Z,99989.00
2023-03-30T20:56:47.790Z,99995.00
2023-03-30T20:59:21.333Z,99999.00
2023-03-30T21:01:55.220Z,99996.00
2023-03-30T21:04:25.464Z,99996.00
2023-03-30T21:06:56.068Z,99996.00
2023-03-30T21:09:26.529Z,99994.00
2023-03-30T21:11:56.636Z,100002.00
2023-03-30T21:14:29.170Z,99995.00
2023-03-30T21:16:59.183Z,100002.00
2023-03-30T21:19:29.296Z,99998.00
2023-03-30T21:22:00.409Z,99989.00
2023-03-30T21:24:30.761Z,99991.00
2023-03-30T21:27:00.720Z,99998.00
2023-03-30T21:29:33.337Z,99986.00
2023-03-30T21:32:03.294Z,99991.00
2023-03-30T21:34:33.456Z,99983.00
2023-03-30T21:37:03.546Z,99975.00
2023-03-30T21:39:33.610Z,99984.00
2023-03-30T21:42:05.321Z,99977.00
2023-03-30T21:44:39.656Z,99987.00
2023-03-30T21:47:09.593Z,99989.00
2023-03-30T21:49:39.616Z,99986.00
2023-03-30T21:52:09.599Z,99992.00
2023-03-30T21:54:39.534Z,99985.00
2023-03-30T21:57:09.520Z,99978.00
2023-03-30T21:59:42.094Z,99982.00
2023-03-30T22:02:12.099Z,99970.00
2023-03-30T22:04:42.090Z,99962.00
2023-03-30T22:07:12.210Z,99967.00
2023-03-30T22:09:42.454Z,99962.00
2023-03-30T22:12:12.392Z,99959.00
2023-03-30T22:14:44.908Z,99959.00
2023-03-30T22:17:14.844Z,99956.00
2023-03-30T22:19:44.776Z,99954.00
2023-03-30T22:22:14.726Z,99952.00
2023-03-30T22:24:44.659Z,99950.00
2023-03-30T22:27:15.899Z,99942.00
2023-03-30T22:29:48.422Z,99944.00
2023-03-30T22:32:19.008Z,99948.00
2023-03-30T22:34:49.261Z,99943.00
2023-03-30T22:37:19.206Z,99940.00
2023-03-30T22:39:49.224Z,99939.00
2023-03-30T22:42:19.236Z,99941.00
2023-03-30T22:44:52.294Z,99930.00
2023-03-30T22:47:22.359Z,99926.00
2023-03-30T22:49:52.900Z,99928.00
2023-03-30T22:52:23.276Z,99918.00
2023-03-30T22:54:53.232Z,99925.00
2023-03-30T22:57:23.207Z,99923.00
2023-03-30T22:59:55.910Z,99926.00
2023-03-30T23:02:26.040Z,99923.00
2023-03-30T23:04:55.969Z,99915.00
2023-03-30T23:07:25.915Z,99912.00
2023-03-30T23:09:58.456Z,99914.00
2023-03-30T23:12:28.404Z,99910.00
2023-03-30T23:15:01.694Z,99908.00
2023-03-30T23:17:32.576Z,99905.00
2023-03-30T23:20:02.567Z,99900.00
2023-03-30T23:22:32.508Z,99904.00
2023-03-30T23:25:02.455Z,99903.00
2023-03-30T23:27:32.735Z,99908.00
2023-03-30T23:30:05.811Z,99903.00
2023-03-30T23:32:36.923Z,99905.00
2023-03-30T23:35:08.035Z,99900.00
2023-03-30T23:37:38.003Z,99902.00
2023-03-30T23:40:10.413Z,99899.00
2023-03-30T23:42:40.523Z,99893.00
2023-03-30T23:45:14.053Z,99895.00
2023-03-30T23:47:44.087Z,99885.00
2023-03-30T23:50:14.199Z,99887.00
2023-03-30T23:52:44.177Z,99887.00
2023-03-30T23:55:15.746Z,99886.00
2023-03-30T23:57:45.731Z,99880.00
